Time;durP1;ratioP1;P1;durP2;ratioP2;P2;SDS_P1;SDS_P2;PMS_P1;PMS_P2;Temp;Humidity;BMP_temperature;BMP_pressure;BME280_temperature;BME280_humidity;BME280_pressure;Samples;Min_cycle;Max_cycle;Signal;HPM_P1;HPM_P2
2022/09/18 00:00:17;;;;;;;8.20;2.60;;;;;;;10.11;100.00;98446.50;104788;1272;71885;-76
2022/09/18 00:03:27;;;;;;;8.10;2.80;;;;;;;10.12;100.00;98446.77;105129;1271;69895;-77
2022/09/18 00:06:20;;;;;;;10.60;2.50;;;;;;;10.13;100.00;98440.30;104885;1272;72944;-77
2022/09/18 00:09:13;;;;;;;8.80;2.50;;;;;;;10.14;100.00;98436.61;104849;1271;59746;-78
2022/09/18 00:12:01;;;;;;;7.00;2.50;;;;;;;10.14;100.00;98434.18;104850;1271;61930;-78
2022/09/18 00:14:50;;;;;;;11.40;3.00;;;;;;;10.13;100.00;98426.52;104865;1271;72991;-77
2022/09/18 00:17:38;;;;;;;6.80;2.60;;;;;;;10.11;100.00;98425.40;105275;1271;66665;-77
2022/09/18 00:20:27;;;;;;;7.00;2.20;;;;;;;10.10;100.00;98416.83;105080;1271;70648;-77
2022/09/18 00:23:15;;;;;;;8.00;2.60;;;;;;;10.08;100.00;98414.25;105292;1272;59704;-77
2022/09/18 00:26:05;;;;;;;8.50;2.70;;;;;;;10.06;100.00;98412.25;105079;1272;59672;-78
2022/09/18 00:28:54;;;;;;;8.50;2.70;;;;;;;10.06;100.00;98413.17;105155;1271;72968;-78
2022/09/18 00:31:44;;;;;;;6.80;2.10;;;;;;;10.03;100.00;98413.59;104839;1272;66485;-78
2022/09/18 00:34:32;;;;;;;7.30;2.20;;;;;;;10.01;100.00;98411.34;105342;1271;73023;-79
2022/09/18 00:37:20;;;;;;;9.30;3.20;;;;;;;9.99;100.00;98410.30;105055;1271;60325;-78
2022/09/18 00:40:09;;;;;;;8.20;2.30;;;;;;;9.96;100.00;98406.59;104850;1271;59729;-77
2022/09/18 00:42:58;;;;;;;9.10;2.30;;;;;;;9.93;100.00;98410.56;105068;1272;71029;-79
2022/09/18 00:45:57;;;;;;;11.20;2.80;;;;;;;9.90;100.00;98407.69;105325;1271;66775;-79
2022/09/18 00:49:15;;;;;;;9.40;2.60;;;;;;;9.89;100.00;98411.73;105018;1271;72697;-79
2022/09/18 00:52:04;;;;;;;7.80;2.50;;;;;;;9.86;100.00;98421.31;105373;1271;59965;-79
2022/09/18 00:55:01;;;;;;;7.90;2.80;;;;;;;9.85;100.00;98415.62;104783;1271;61421;-79
2022/09/18 00:57:55;;;;;;;8.30;2.60;;;;;;;9.84;100.00;98410.21;104866;1271;72021;-81
2022/09/18 01:00:43;;;;;;;6.70;2.50;;;;;;;9.83;100.00;98402.58;104918;1271;69724;-79
2022/09/18 01:03:32;;;;;;;6.80;2.50;;;;;;;9.80;100.00;98398.42;104955;1271;73006;-79
2022/09/18 01:06:33;;;;;;;8.10;2.60;;;;;;;9.77;100.00;98398.74;104864;1271;61659;-80
2022/09/18 01:10:03;;;;;;;9.50;2.30;;;;;;;9.73;100.00;98400.26;103895;1271;1623586;-77
2022/09/18 01:12:57;;;;;;;8.30;2.50;;;;;;;9.68;100.00;98394.85;105249;1271;73287;-79
2022/09/18 01:16:08;;;;;;;9.10;2.80;;;;;;;9.65;100.00;98391.80;104980;1271;69343;-78
2022/09/18 01:19:18;;;;;;;8.40;2.60;;;;;;;9.63;100.00;98390.09;105149;1271;71443;-80
2022/09/18 01:22:29;;;;;;;7.40;2.60;;;;;;;9.60;100.00;98392.45;105434;1271;59685;-78
2022/09/18 01:25:30;;;;;;;8.30;2.90;;;;;;;9.59;100.00;98387.41;104967;1271;60497;-79
2022/09/18 01:28:43;;;;;;;6.90;2.90;;;;;;;9.60;100.00;98386.58;105012;1271;73828;-80
2022/09/18 01:31:52;;;;;;;6.60;2.90;;;;;;;9.63;100.00;98385.84;104977;1271;67983;-77
2022/09/18 01:34:44;;;;;;;9.90;3.60;;;;;;;9.64;100.00;98392.02;104934;1271;72875;-79
2022/09/18 01:38:16;;;;;;;8.70;2.70;;;;;;;9.67;100.00;98397.12;105061;1271;59774;-79
2022/09/18 01:41:13;;;;;;;8.70;3.30;;;;;;;9.71;100.00;98396.48;104692;1278;59788;-80
2022/09/18 01:44:10;;;;;;;7.90;2.70;;;;;;;9.74;100.00;98395.12;104312;1280;73467;-79
2022/09/18 01:47:02;;;;;;;9.10;3.20;;;;;;;9.77;100.00;98390.04;104596;1278;67806;-79
2022/09/18 01:49:55;;;;;;;8.00;2.40;;;;;;;9.78;100.00;98389.20;104294;1280;71851;-79
2022/09/18 01:53:12;;;;;;;9.10;3.20;;;;;;;9.79;100.00;98393.72;104400;1280;59836;-77
2022/09/18 01:56:14;;;;;;;7.90;3.50;;;;;;;9.82;100.00;98390.98;104315;1279;59631;-77
2022/09/18 01:59:12;;;;;;;8.30;3.30;;;;;;;9.84;100.00;98392.38;104422;1278;71684;-78
2022/09/18 02:02:39;;;;;;;11.20;3.70;;;;;;;9.87;100.00;98394.00;104678;1278;66256;-79
2022/09/18 02:05:41;;;;;;;7.70;3.50;;;;;;;9.87;100.00;98392.35;104698;1280;71539;-79
2022/09/18 02:08:52;;;;;;;10.20;3.40;;;;;;;9.88;100.00;98391.02;104165;1280;59702;-80
2022/09/18 02:11:49;;;;;;;7.50;3.00;;;;;;;9.91;100.00;98398.42;104547;1277;59568;-80
2022/09/18 02:14:43;;;;;;;7.70;2.80;;;;;;;9.88;100.00;98395.79;104535;1277;71844;-79
2022/09/18 02:18:06;;;;;;;7.30;2.60;;;;;;;9.88;100.00;98393.66;104571;1277;67183;-77
2022/09/18 02:21:01;;;;;;;10.30;3.40;;;;;;;9.88;100.00;98386.82;104958;1277;71324;-79
2022/09/18 02:23:52;;;;;;;7.70;3.30;;;;;;;9.88;100.00;98388.38;104738;1277;59624;-78
2022/09/18 02:26:43;;;;;;;11.40;3.20;;;;;;;9.89;100.00;98392.38;104766;1276;60252;-78
2022/09/18 02:29:32;;;;;;;7.90;3.50;;;;;;;9.88;100.00;98392.30;104482;1277;71732;-79
2022/09/18 02:32:20;;;;;;;11.00;3.60;;;;;;;9.89;100.00;98395.73;104684;1277;67978;-80
2022/09/18 02:35:10;;;;;;;8.50;3.60;;;;;;;9.91;100.00;98395.40;104608;1277;72863;-79
2022/09/18 02:38:39;;;;;;;8.80;3.30;;;;;;;9.92;100.00;98392.68;104768;1271;59716;-78
2022/09/18 02:42:06;;;;;;;8.00;3.40;;;;;;;9.92;100.00;98398.53;105197;1271;59570;-79
2022/09/18 02:45:06;;;;;;;7.50;3.00;;;;;;;9.93;100.00;98398.73;105336;1271;72126;-79
2022/09/18 02:48:33;;;;;;;8.10;3.20;;;;;;;9.91;100.00;98394.47;105058;1271;67962;-80
2022/09/18 02:52:20;;;;;;;8.60;3.40;;;;;;;9.92;100.00;98397.63;105197;1271;71312;-78
2022/09/18 02:55:30;;;;;;;8.50;3.70;;;;;;;9.92;100.00;98395.27;104469;1278;59931;-77
2022/09/18 02:58:31;;;;;;;8.40;3.50;;;;;;;9.92;100.00;98396.40;104076;1281;60727;-77
2022/09/18 03:01:24;;;;;;;8.70;3.60;;;;;;;9.90;100.00;98400.25;104476;1281;73055;-78
2022/09/18 03:04:18;;;;;;;8.40;3.50;;;;;;;9.90;100.00;98401.65;104313;1281;69732;-78
2022/09/18 03:07:36;;;;;;;8.10;3.30;;;;;;;9.90;100.00;98398.81;104170;1281;71962;-81
2022/09/18 03:10:25;;;;;;;7.60;2.90;;;;;;;9.88;100.00;98399.38;104111;1281;60024;-79
2022/09/18 03:13:13;;;;;;;6.80;2.90;;;;;;;9.86;100.00;98396.86;104009;1281;59724;-78
2022/09/18 03:16:02;;;;;;;9.10;3.30;;;;;;;9.85;100.00;98395.92;103872;1282;76906;-77
2022/09/18 03:18:50;;;;;;;8.20;3.70;;;;;;;9.84;100.00;98389.55;104248;1281;68069;-78
2022/09/18 03:21:40;;;;;;;8.10;3.40;;;;;;;9.84;100.00;98392.67;104305;1281;73397;-79
2022/09/18 03:24:30;;;;;;;7.50;3.40;;;;;;;9.84;100.00;98395.66;104307;1281;60179;-78
2022/09/18 03:27:18;;;;;;;9.50;3.80;;;;;;;9.85;100.00;98394.70;104089;1282;59596;-79
2022/09/18 03:30:08;;;;;;;11.00;3.50;;;;;;;9.87;100.00;98396.27;104540;1272;72187;-79
2022/09/18 03:32:56;;;;;;;7.90;3.10;;;;;;;9.90;100.00;98392.48;104883;1271;68199;-77
2022/09/18 03:35:47;;;;;;;7.80;3.10;;;;;;;9.91;100.00;98384.06;104911;1271;71978;-81
2022/09/18 03:38:39;;;;;;;8.50;3.10;;;;;;;9.90;100.00;98384.10;105149;1271;59841;-77
2022/09/18 03:41:27;;;;;;;7.50;3.00;;;;;;;9.90;100.00;98390.02;105038;1271;59672;-78
2022/09/18 03:44:16;;;;;;;8.80;3.40;;;;;;;9.88;100.00;98390.03;105177;1271;73044;-78
2022/09/18 03:47:08;;;;;;;8.10;3.10;;;;;;;9.85;100.00;98392.77;104874;1271;66803;-79
2022/09/18 03:49:58;;;;;;;7.10;3.00;;;;;;;9.84;100.00;98395.52;104754;1271;74122;-79
2022/09/18 03:52:47;;;;;;;7.30;2.70;;;;;;;9.84;100.00;98393.27;105113;1271;59714;-80
2022/09/18 03:55:56;;;;;;;7.70;3.10;;;;;;;9.85;100.00;98398.66;105132;1271;59656;-79
2022/09/18 03:59:05;;;;;;;7.20;3.30;;;;;;;9.86;100.00;98400.82;105107;1271;72061;-79
2022/09/18 04:02:14;;;;;;;8.20;3.60;;;;;;;9.88;100.00;98405.08;105147;1271;65617;-80
2022/09/18 04:05:21;;;;;;;7.50;3.50;;;;;;;9.89;100.00;98405.83;105224;1271;72806;-79
2022/09/18 04:08:28;;;;;;;7.30;2.90;;;;;;;9.87;100.00;98408.02;104993;1271;59651;-77
2022/09/18 04:11:26;;;;;;;8.90;3.70;;;;;;;9.84;100.00;98402.96;104999;1271;59575;-79
2022/09/18 04:14:15;;;;;;;7.60;2.70;;;;;;;9.82;100.00;98403.52;105127;1271;72017;-79
2022/09/18 04:17:04;;;;;;;8.50;3.40;;;;;;;9.80;100.00;98400.90;105555;1271;67793;-80
2022/09/18 04:19:53;;;;;;;7.90;3.20;;;;;;;9.79;100.00;98402.98;105100;1271;72778;-78
2022/09/18 04:22:41;;;;;;;7.70;2.80;;;;;;;9.77;100.00;98406.16;104955;1271;59924;-78
2022/09/18 04:25:29;;;;;;;7.20;3.20;;;;;;;9.76;100.00;98408.71;105247;1271;60526;-79
2022/09/18 04:28:18;;;;;;;7.10;3.10;;;;;;;9.76;100.00;98409.95;105139;1271;73408;-79
2022/09/18 04:31:08;;;;;;;7.10;2.90;;;;;;;9.76;100.00;98411.83;105055;1271;66735;-77
2022/09/18 04:33:57;;;;;;;8.00;3.50;;;;;;;9.75;100.00;98412.73;105364;1271;72925;-77
2022/09/18 04:36:45;;;;;;;6.90;2.90;;;;;;;9.75;100.00;98417.17;104866;1271;59784;-78
2022/09/18 04:39:34;;;;;;;8.70;3.60;;;;;;;9.75;100.00;98416.47;104905;1271;60673;-79
2022/09/18 04:42:23;;;;;;;7.50;3.30;;;;;;;9.76;100.00;98415.98;105033;1271;73123;-79
2022/09/18 04:45:11;;;;;;;7.30;3.30;;;;;;;9.78;100.00;98418.05;105313;1271;68519;-79
2022/09/18 04:48:01;;;;;;;9.00;3.40;;;;;;;9.84;100.00;98419.06;105242;1271;72160;-78
2022/09/18 04:50:49;;;;;;;7.30;2.60;;;;;;;9.87;100.00;98424.84;105124;1271;59756;-78
2022/09/18 04:53:38;;;;;;;8.30;3.20;;;;;;;9.90;100.00;98423.99;105001;1271;60243;-79
2022/09/18 04:56:26;;;;;;;6.60;2.80;;;;;;;9.94;100.00;98428.34;105302;1271;72797;-78
2022/09/18 04:59:16;;;;;;;7.10;3.00;;;;;;;9.98;100.00;98427.58;104968;1274;66520;-80
2022/09/18 05:02:06;;;;;;;7.10;3.10;;;;;;;10.02;100.00;98433.36;104939;1271;72589;-76
2022/09/18 05:04:55;;;;;;;7.40;3.10;;;;;;;10.06;100.00;98437.83;104904;1271;59750;-78
2022/09/18 05:07:52;;;;;;;8.80;3.50;;;;;;;10.11;100.00;98441.91;105117;1271;59619;-79
2022/09/18 05:10:42;;;;;;;8.30;3.20;;;;;;;10.16;100.00;98444.73;104874;1271;73306;-78
2022/09/18 05:13:31;;;;;;;9.00;3.60;;;;;;;10.20;100.00;98451.45;104897;1271;67852;-77
2022/09/18 05:16:26;;;;;;;8.00;3.80;;;;;;;10.24;100.00;98450.67;105114;1271;71406;-75
2022/09/18 05:19:37;;;;;;;8.70;3.50;;;;;;;10.29;100.00;98448.61;105299;1271;60365;-79
2022/09/18 05:22:36;;;;;;;8.20;3.60;;;;;;;10.31;100.00;98450.19;105814;1271;59541;-78
2022/09/18 05:25:28;;;;;;;8.40;4.00;;;;;;;10.34;100.00;98453.41;105488;1271;72063;-79
2022/09/18 05:28:18;;;;;;;8.20;3.60;;;;;;;10.37;100.00;98455.12;105596;1271;68039;-79
2022/09/18 05:31:08;;;;;;;9.50;3.60;;;;;;;10.39;100.00;98450.26;104985;1271;72955;-80
2022/09/18 05:34:01;;;;;;;8.80;3.30;;;;;;;10.42;100.00;98449.84;105004;1271;59738;-77
2022/09/18 05:36:50;;;;;;;8.50;4.00;;;;;;;10.47;100.00;98449.98;105216;1271;59661;-80
2022/09/18 05:39:38;;;;;;;8.20;3.80;;;;;;;10.53;100.00;98448.86;105405;1271;73274;-79
2022/09/18 05:42:26;;;;;;;7.30;3.40;;;;;;;10.58;100.00;98445.80;105345;1271;67806;-79
2022/09/18 05:45:18;;;;;;;7.80;3.60;;;;;;;10.64;100.00;98449.13;105479;1271;72098;-79
2022/09/18 05:48:08;;;;;;;7.80;3.60;;;;;;;10.70;100.00;98445.83;105032;1271;59779;-78
2022/09/18 05:50:57;;;;;;;7.10;3.10;;;;;;;10.74;100.00;98442.82;105057;1271;60071;-77
2022/09/18 05:53:48;;;;;;;7.90;3.60;;;;;;;10.81;100.00;98441.67;105054;1271;71415;-77
2022/09/18 05:56:43;;;;;;;7.90;3.50;;;;;;;10.88;100.00;98440.20;105218;1271;66880;-79
2022/09/18 05:59:31;;;;;;;7.50;3.20;;;;;;;10.95;100.00;98440.99;104942;1272;72805;-77
2022/09/18 06:02:19;;;;;;;8.50;4.00;;;;;;;11.02;100.00;98444.64;105018;1271;59711;-79
2022/09/18 06:05:36;;;;;;;7.30;2.90;;;;;;;11.11;99.93;98445.00;105377;1271;59606;-76
2022/09/18 06:08:25;;;;;;;6.90;2.70;;;;;;;11.16;99.59;98443.13;105259;1274;74580;-77
2022/09/18 06:11:14;;;;;;;9.00;3.10;;;;;;;11.22;98.60;98444.11;105100;1271;68070;-78
2022/09/18 06:14:03;;;;;;;8.00;3.30;;;;;;;11.26;98.66;98443.20;105107;1271;72794;-77
2022/09/18 06:16:53;;;;;;;7.00;2.80;;;;;;;11.30;98.66;98441.48;105061;1271;60321;-77
2022/09/18 06:19:42;;;;;;;8.40;3.70;;;;;;;11.34;97.85;98442.59;105124;1271;61416;-76
2022/09/18 06:22:31;;;;;;;8.40;3.10;;;;;;;11.40;97.95;98445.44;105230;1271;73711;-78
2022/09/18 06:25:22;;;;;;;7.30;3.20;;;;;;;11.47;97.43;98446.24;105459;1271;68301;-78
2022/09/18 06:28:10;;;;;;;7.40;3.10;;;;;;;11.56;97.27;98447.09;105256;1269;73244;-83
2022/09/18 06:31:01;;;;;;;7.40;3.00;;;;;;;11.63;97.05;98448.48;105799;1271;59716;-76
2022/09/18 06:33:56;;;;;;;7.60;3.10;;;;;;;11.69;96.42;98450.30;105067;1271;61610;-76
2022/09/18 06:36:45;;;;;;;8.30;3.30;;;;;;;11.71;95.67;98449.89;105186;1271;74719;-72
2022/09/18 06:39:56;;;;;;;7.70;2.90;;;;;;;11.71;95.59;98444.92;105495;1271;67320;-81
2022/09/18 06:42:57;;;;;;;7.20;2.60;;;;;;;11.77;95.89;98446.83;105511;1271;73716;-80
2022/09/18 06:46:18;;;;;;;6.90;3.00;;;;;;;11.85;95.32;98442.61;105580;1271;60857;-81
2022/09/18 06:49:12;;;;;;;7.40;3.00;;;;;;;11.87;94.26;98446.02;105513;1271;62382;-75
2022/09/18 06:52:02;;;;;;;6.60;2.70;;;;;;;11.95;94.06;98441.55;105297;1271;74146;-74
2022/09/18 06:54:51;;;;;;;7.50;2.40;;;;;;;12.05;92.91;98439.31;105156;1271;69556;-73
2022/09/18 06:57:57;;;;;;;6.50;2.70;;;;;;;12.23;92.97;98444.98;105150;1271;74452;-74
2022/09/18 07:00:47;;;;;;;6.50;2.50;;;;;;;12.39;92.37;98441.63;105028;1271;61113;-76
2022/09/18 07:03:42;;;;;;;9.40;2.30;;;;;;;12.54;91.03;98443.34;105115;1271;60247;-73
2022/09/18 07:06:53;;;;;;;6.10;1.90;;;;;;;12.65;90.43;98440.54;105386;1271;73695;-77
2022/09/18 07:09:42;;;;;;;7.20;2.40;;;;;;;12.74;90.29;98436.73;105136;1271;68300;-75
2022/09/18 07:12:41;;;;;;;7.00;2.50;;;;;;;12.82;89.86;98434.93;105383;1271;73019;-74
2022/09/18 07:15:30;;;;;;;6.90;2.40;;;;;;;12.85;88.80;98436.43;105124;1271;59929;-76
2022/09/18 07:18:20;;;;;;;6.40;1.80;;;;;;;12.96;88.88;98442.28;105131;1271;60356;-77
2022/09/18 07:21:08;;;;;;;7.60;2.60;;;;;;;13.11;87.52;98443.73;105340;1271;72031;-79
2022/09/18 07:24:04;;;;;;;7.00;2.20;;;;;;;13.32;86.51;98442.83;105430;1270;68014;-77
2022/09/18 07:26:59;;;;;;;7.00;2.40;;;;;;;13.54;85.32;98437.83;105224;1271;71331;-76
2022/09/18 07:30:01;;;;;;;6.60;2.00;;;;;;;13.71;84.88;98437.44;105484;1271;59717;-74
2022/09/18 07:32:49;;;;;;;6.00;2.10;;;;;;;13.80;82.97;98433.42;105407;1271;60502;-76
2022/09/18 07:35:38;;;;;;;6.30;2.00;;;;;;;13.95;83.35;98433.02;105434;1271;73299;-76
2022/09/18 07:38:27;;;;;;;6.50;2.30;;;;;;;14.16;83.08;98435.27;105253;1271;68265;-77
2022/09/18 07:41:17;;;;;;;6.00;2.30;;;;;;;14.43;81.38;98439.23;105467;1271;73927;-78
2022/09/18 07:44:05;;;;;;;7.40;2.30;;;;;;;14.72;79.59;98436.20;105084;1271;59900;-80
2022/09/18 07:46:56;;;;;;;6.30;2.20;;;;;;;14.95;77.70;98437.64;105312;1271;60298;-77
2022/09/18 07:49:44;;;;;;;5.70;2.10;;;;;;;15.24;76.46;98440.86;105080;1270;72990;-74
2022/09/18 07:52:32;;;;;;;7.50;2.40;;;;;;;15.44;74.40;98438.46;105534;1271;69141;-73
2022/09/18 07:55:26;;;;;;;6.30;2.20;;;;;;;15.64;74.24;98438.88;105198;1271;74315;-80
2022/09/18 07:58:14;;;;;;;7.50;2.40;;;;;;;15.80;73.36;98437.20;105139;1271;60415;-76
2022/09/18 08:01:11;;;;;;;6.50;2.40;;;;;;;15.82;71.88;98434.80;105019;1271;59646;-77
2022/09/18 08:04:12;;;;;;;6.60;2.10;;;;;;;15.89;71.58;98436.79;105235;1271;74077;-74
2022/09/18 08:07:23;;;;;;;6.20;2.10;;;;;;;15.90;71.05;98439.93;105254;1271;66513;-76
2022/09/18 08:10:17;;;;;;;6.30;1.80;;;;;;;16.03;71.22;98442.18;105145;1271;72862;-80
2022/09/18 08:13:38;;;;;;;5.80;2.10;;;;;;;16.22;70.93;98437.46;105761;1271;59758;-75
2022/09/18 08:16:53;;;;;;;6.40;2.00;;;;;;;16.44;70.30;98445.98;105164;1270;62085;-79
2022/09/18 08:19:59;;;;;;;5.40;1.60;;;;;;;16.74;69.55;98445.84;105219;1271;75037;-76
2022/09/18 08:23:19;;;;;;;7.00;1.80;;;;;;;17.01;68.06;98445.79;105761;1271;66718;-75
2022/09/18 08:26:07;;;;;;;5.30;1.70;;;;;;;17.14;67.07;98452.78;105332;1271;72768;-76
2022/09/18 08:28:56;;;;;;;6.20;1.70;;;;;;;17.26;66.64;98450.46;105313;1271;59644;-77
2022/09/18 08:31:46;;;;;;;5.40;1.80;;;;;;;17.39;65.58;98454.73;105581;1271;59537;-78
2022/09/18 08:34:37;;;;;;;5.80;1.70;;;;;;;17.51;65.20;98459.35;105084;1271;74274;-77
2022/09/18 08:37:34;;;;;;;5.60;1.60;;;;;;;17.82;64.58;98458.91;105288;1271;68567;-77
2022/09/18 08:40:57;;;;;;;6.20;1.70;;;;;;;18.17;63.40;98459.08;105583;1271;73667;-76
2022/09/18 08:44:04;;;;;;;6.50;1.90;;;;;;;18.56;61.53;98459.02;105670;1271;60367;-74
2022/09/18 08:47:14;;;;;;;6.20;1.70;;;;;;;18.88;59.74;98459.85;105485;1271;60505;-72
2022/09/18 08:50:24;;;;;;;6.60;2.10;;;;;;;18.92;59.13;98460.79;105389;1271;72078;-75
2022/09/18 08:53:40;;;;;;;5.50;1.60;;;;;;;19.23;59.40;98459.39;105555;1271;68151;-75
2022/09/18 08:56:51;;;;;;;6.20;1.90;;;;;;;19.57;57.70;98462.69;105500;1271;72955;-75
2022/09/18 09:00:27;;;;;;;5.60;1.60;;;;;;;19.52;56.52;98463.96;105173;1271;59682;-74
2022/09/18 09:04:06;;;;;;;6.10;2.10;;;;;;;19.61;56.97;98463.16;105316;1271;60331;-79
2022/09/18 09:07:00;;;;;;;8.80;2.80;;;;;;;19.78;56.61;98468.17;105756;1271;74285;-78
2022/09/18 09:10:25;;;;;;;6.60;2.10;;;;;;;19.99;55.96;98462.77;105229;1271;67813;-73
2022/09/18 09:13:57;;;;;;;6.40;1.70;;;;;;;20.23;53.91;98455.88;105612;1271;72883;-74
2022/09/18 09:17:00;;;;;;;5.70;1.60;;;;;;;20.33;53.77;98456.84;105378;1271;60480;-72
2022/09/18 09:20:21;;;;;;;6.70;1.40;;;;;;;20.48;53.15;98448.92;105676;1271;59561;-78
2022/09/18 09:23:51;;;;;;;6.40;1.60;;;;;;;20.83;53.00;98453.91;105258;1271;73239;-77
2022/09/18 09:27:34;;;;;;;5.80;1.60;;;;;;;21.25;51.63;98451.20;105464;1271;68697;-73
2022/09/18 09:30:54;;;;;;;11.50;5.90;;;;;;;21.75;49.63;98455.52;105242;1273;73482;-75
2022/09/18 09:34:14;;;;;;;7.70;2.00;;;;;;;22.03;48.09;98457.10;105225;1271;59683;-73
2022/09/18 09:37:22;;;;;;;7.00;1.40;;;;;;;22.24;47.54;98457.66;105263;1271;62210;-74
2022/09/18 09:40:37;;;;;;;6.50;1.40;;;;;;;22.53;47.01;98456.02;105080;1271;72359;-72
2022/09/18 09:43:52;;;;;;;5.60;1.20;;;;;;;23.07;45.74;98460.34;105477;1271;69032;-77
2022/09/18 09:47:20;;;;;;;5.50;1.40;;;;;;;23.70;44.26;98460.52;105266;1271;71336;-78
2022/09/18 09:50:38;;;;;;;7.70;1.30;;;;;;;24.20;42.79;98458.23;105246;1271;59735;-75
2022/09/18 09:53:27;;;;;;;6.10;1.70;;;;;;;24.58;41.85;98455.23;105484;1271;62399;-80
2022/09/18 09:56:37;;;;;;;6.50;1.40;;;;;;;24.49;41.51;98458.21;105199;1271;73291;-74
2022/09/18 10:00:13;;;;;;;5.50;1.30;;;;;;;23.96;42.65;98465.45;105094;1271;66999;-76
2022/09/18 10:03:38;;;;;;;6.00;1.30;;;;;;;23.56;43.52;98463.70;105475;1271;72995;-77
2022/09/18 10:06:46;;;;;;;5.70;1.40;;;;;;;23.29;43.38;98459.70;105316;1271;59660;-78
2022/09/18 10:10:04;;;;;;;5.60;1.40;;;;;;;23.24;43.25;98462.27;105257;1271;62228;-74
2022/09/18 10:13:02;;;;;;;5.90;1.50;;;;;;;23.30;43.79;98470.30;105173;1271;73056;-73
2022/09/18 10:16:02;;;;;;;5.50;1.20;;;;;;;23.31;43.34;98473.91;104942;1271;68586;-75
2022/09/18 10:18:50;;;;;;;5.40;1.20;;;;;;;23.32;43.79;98474.67;105559;1271;74091;-76
2022/09/18 10:21:40;;;;;;;4.80;1.40;;;;;;;23.25;43.50;98477.19;105120;1271;59745;-77
2022/09/18 10:24:34;;;;;;;4.70;1.10;;;;;;;22.55;43.93;98474.21;104973;1271;62097;-77
2022/09/18 10:27:24;;;;;;;6.60;1.20;;;;;;;22.34;45.73;98481.41;105077;1271;73316;-75
2022/09/18 10:30:13;;;;;;;4.70;1.20;;;;;;;22.45;45.54;98484.15;104959;1273;69436;-79
2022/09/18 10:33:51;;;;;;;4.90;1.10;;;;;;;22.40;45.38;98480.18;104779;1276;72946;-77
2022/09/18 10:36:46;;;;;;;7.10;1.40;;;;;;;22.21;45.52;98477.95;104885;1276;59549;-75
2022/09/18 10:39:47;;;;;;;5.20;1.20;;;;;;;22.11;45.71;98475.17;104891;1276;59745;-75
2022/09/18 10:42:38;;;;;;;5.90;1.30;;;;;;;21.97;46.50;98477.69;105030;1276;73154;-77
2022/09/18 10:45:55;;;;;;;6.30;1.30;;;;;;;21.77;46.63;98480.12;104849;1276;67881;-75
2022/09/18 10:49:17;;;;;;;6.70;1.30;;;;;;;21.61;47.59;98483.30;104727;1276;74426;-78
2022/09/18 10:52:20;;;;;;;5.50;1.40;;;;;;;21.50;47.72;98485.56;105117;1276;59686;-74
2022/09/18 10:55:14;;;;;;;5.80;1.30;;;;;;;21.36;48.27;98484.84;105089;1276;61955;-75
2022/09/18 10:58:14;;;;;;;4.50;0.90;;;;;;;21.35;48.14;98481.33;104845;1276;73614;-72
2022/09/18 11:01:09;;;;;;;7.40;1.00;;;;;;;20.85;48.30;98486.20;104951;1274;66754;-73
2022/09/18 11:04:03;;;;;;;5.00;1.10;;;;;;;20.41;49.54;98490.09;105035;1273;70984;-75
2022/09/18 11:06:55;;;;;;;6.10;1.50;;;;;;;20.25;50.50;98486.08;104948;1274;59675;-73
2022/09/18 11:09:47;;;;;;;5.60;1.20;;;;;;;20.34;51.13;98490.28;104921;1274;59581;-76
2022/09/18 11:12:35;;;;;;;5.20;1.30;;;;;;;20.66;50.88;98485.87;105208;1274;71932;-76
2022/09/18 11:15:34;;;;;;;4.70;1.20;;;;;;;20.92;49.55;98484.05;104822;1274;69587;-81
2022/09/18 11:18:28;;;;;;;5.00;1.30;;;;;;;20.95;49.75;98481.39;105231;1274;74906;-79
2022/09/18 11:21:32;;;;;;;5.60;1.20;;;;;;;21.22;49.55;98478.73;105554;1273;59704;-80
2022/09/18 11:24:27;;;;;;;5.40;1.40;;;;;;;21.40;48.43;98471.19;105201;1274;60021;-81
2022/09/18 11:27:22;;;;;;;5.00;1.20;;;;;;;21.47;47.35;98468.77;105755;1274;73231;-79
2022/09/18 11:30:29;;;;;;;5.70;1.20;;;;;;;21.29;47.85;98469.05;105936;1274;65872;-79
2022/09/18 11:33:32;;;;;;;4.90;1.10;;;;;;;21.43;47.57;98470.77;106072;1276;72877;-80
2022/09/18 11:36:31;;;;;;;5.10;1.20;;;;;;;21.27;47.36;98470.14;105621;1275;59677;-81
2022/09/18 11:39:55;;;;;;;5.10;1.20;;;;;;;21.21;46.78;98467.27;105952;1274;60780;-79
2022/09/18 11:42:49;;;;;;;6.90;1.60;;;;;;;21.55;46.80;98465.23;105668;1271;73339;-79
2022/09/18 11:45:55;;;;;;;5.00;1.10;;;;;;;21.92;45.24;98456.48;105541;1271;67652;-78
2022/09/18 11:49:22;;;;;;;4.90;1.20;;;;;;;22.11;44.70;98455.23;106309;1271;71299;-78
2022/09/18 11:52:29;;;;;;;5.80;1.30;;;;;;;22.20;44.82;98451.38;106009;1271;59292;-81
2022/09/18 11:55:43;;;;;;;4.90;1.00;;;;;;;22.54;43.86;98453.17;105452;1270;59703;-78
2022/09/18 11:58:44;;;;;;;4.90;1.20;;;;;;;22.64;43.74;98463.85;105345;1271;71896;-80
2022/09/18 12:01:44;;;;;;;5.50;1.10;;;;;;;22.79;43.05;98465.05;105775;1271;68081;-79
2022/09/18 12:05:26;;;;;;;5.10;1.30;;;;;;;23.02;42.34;98463.73;105467;1271;71568;-79
2022/09/18 12:08:53;;;;;;;4.50;1.00;;;;;;;22.98;41.78;98462.58;105120;1279;59804;-80
2022/09/18 12:12:07;;;;;;;3.80;0.90;;;;;;;22.85;39.20;98460.35;104637;1280;60234;-80
2022/09/18 12:15:24;;;;;;;5.80;1.00;;;;;;;22.52;40.09;98469.67;104996;1279;73319;-80
2022/09/18 12:18:25;;;;;;;4.80;1.00;;;;;;;22.20;40.36;98477.91;104754;1278;67061;-80
2022/09/18 12:21:22;;;;;;;3.90;0.90;;;;;;;21.64;40.46;98482.37;104645;1277;73757;-80
2022/09/18 12:24:16;;;;;;;4.30;0.90;;;;;;;21.07;41.65;98488.83;104894;1279;59696;-80
2022/09/18 12:27:17;;;;;;;4.00;0.90;;;;;;;20.54;42.80;98495.48;105327;1278;60667;-80
2022/09/18 12:30:17;;;;;;;3.80;0.80;;;;;;;19.74;42.80;98508.47;105734;1280;73064;-81
2022/09/18 12:33:28;;;;;;;3.70;0.90;;;;;;;18.94;43.70;98512.15;105387;1277;68865;-81
2022/09/18 12:36:48;;;;;;;4.80;1.70;;;;;;;18.38;45.56;98511.55;105226;1277;72633;-75
2022/09/18 12:40:09;;;;;;;5.70;1.80;;;;;;;17.83;47.02;98519.85;104734;1278;59874;-75
2022/09/18 12:43:40;;;;;;;4.90;1.40;;;;;;;17.23;47.93;98520.05;104946;1274;61309;-75
2022/09/18 12:46:43;;;;;;;3.80;1.00;;;;;;;16.69;49.28;98523.29;105445;1271;73437;-80
2022/09/18 12:50:28;;;;;;;4.00;1.00;;;;;;;16.33;49.56;98526.33;106042;1271;70089;-80
2022/09/18 12:53:56;;;;;;;3.80;0.90;;;;;;;15.94;51.65;98527.90;106190;1271;71941;-79
2022/09/18 12:56:56;;;;;;;4.50;1.00;;;;;;;15.68;53.22;98538.39;106518;1271;59541;-79
2022/09/18 12:59:57;;;;;;;4.70;1.10;;;;;;;15.48;53.64;98548.02;106658;1271;59642;-81
2022/09/18 13:02:58;;;;;;;5.10;1.40;;;;;;;15.23;55.29;98555.13;106067;1271;71681;-79
2022/09/18 13:05:55;;;;;;;5.90;1.50;;;;;;;14.92;56.60;98559.36;105680;1271;66816;-79
2022/09/18 13:08:58;;;;;;;5.20;1.40;;;;;;;14.72;58.48;98564.23;106144;1271;73829;-79
2022/09/18 13:12:02;;;;;;;4.50;1.00;;;;;;;14.53;59.70;98565.45;104718;1271;60047;-79
2022/09/18 13:15:08;;;;;;;4.60;1.10;;;;;;;14.28;59.87;98561.39;106069;1271;59790;-80
2022/09/18 13:18:15;;;;;;;5.20;1.30;;;;;;;14.09;61.36;98559.52;105898;1271;73496;-80
2022/09/18 13:21:16;;;;;;;5.60;1.50;;;;;;;13.93;63.31;98553.15;105883;1271;68003;-78
2022/09/18 13:24:05;;;;;;;5.50;1.40;;;;;;;13.84;64.31;98553.75;105423;1271;72679;-81
2022/09/18 13:26:55;;;;;;;6.20;1.60;;;;;;;13.85;65.22;98549.40;105546;1271;60018;-82
2022/09/18 13:29:52;;;;;;;5.60;1.40;;;;;;;13.88;66.19;98544.62;105610;1271;59746;-79
2022/09/18 13:32:41;;;;;;;5.80;1.60;;;;;;;13.85;67.01;98544.09;105764;1271;73572;-80
2022/09/18 13:35:35;;;;;;;5.90;1.50;;;;;;;13.85;67.51;98544.09;105779;1271;66253;-82
2022/09/18 13:38:30;;;;;;;6.00;1.70;;;;;;;13.87;68.18;98545.77;105271;1271;71555;-80
2022/09/18 13:41:19;;;;;;;6.90;2.10;;;;;;;13.89;68.62;98544.63;105420;1271;59798;-82
2022/09/18 13:44:26;;;;;;;7.40;1.80;;;;;;;13.88;69.23;98540.78;105074;1271;62118;-82
2022/09/18 13:47:15;;;;;;;6.30;1.70;;;;;;;13.91;69.75;98545.67;105252;1271;74121;-79
2022/09/18 13:50:06;;;;;;;7.10;1.70;;;;;;;13.92;70.52;98540.39;105073;1271;68012;-80
2022/09/18 13:52:57;;;;;;;6.90;1.80;;;;;;;13.92;70.37;98545.57;105170;1271;74197;-79
2022/09/18 13:55:49;;;;;;;8.60;2.30;;;;;;;13.94;70.95;98539.93;105033;1271;59570;-79